Time;durP1;ratioP1;P1;durP2;ratioP2;P2;SDS_P1;SDS_P2;PMS_P1;PMS_P2;Temp;Humidity;BMP_temperature;BMP_pressure;BME280_temperature;BME280_humidity;BME280_pressure;Samples;Min_cycle;Max_cycle;Signal;HPM_P1;HPM_P2
2023/03/18 00:01:06;;;;;;;623.10;198.73;;;9.90;99.90;;;;;;5092407;28;20295;-52
2023/03/18 00:03:37;;;;;;;135.67;70.80;;;9.90;99.90;;;;;;5092259;28;20317;-52
2023/03/18 00:06:07;;;;;;;556.17;185.10;;;9.90;99.90;;;;;;5092439;28;20212;-52
2023/03/18 00:08:36;;;;;;;28.87;26.27;;;9.90;99.90;;;;;;5092109;28;20583;-52
2023/03/18 00:11:05;;;;;;;118.37;73.80;;;9.80;99.90;;;;;;5092581;28;20208;-52
2023/03/18 00:13:33;;;;;;;969.93;282.27;;;9.80;99.90;;;;;;5092288;28;20307;-52
2023/03/18 00:16:03;;;;;;;446.37;220.73;;;9.80;99.90;;;;;;5092244;28;20232;-51
2023/03/18 00:18:31;;;;;;;520.90;160.23;;;9.70;99.90;;;;;;5092451;28;20283;-51
2023/03/18 00:21:02;;;;;;;1141.17;332.07;;;9.70;99.90;;;;;;5091947;28;20301;-52
2023/03/18 00:23:31;;;;;;;172.43;93.00;;;9.60;99.90;;;;;;5092307;28;20251;-52
2023/03/18 00:26:01;;;;;;;246.43;154.07;;;9.60;99.90;;;;;;5092255;28;20233;-51
2023/03/18 00:28:30;;;;;;;276.23;99.07;;;9.60;99.90;;;;;;5091299;28;20329;-51
2023/03/18 00:31:03;;;;;;;607.97;186.60;;;9.60;99.90;;;;;;5091774;28;20584;-52
2023/03/18 00:33:32;;;;;;;968.37;272.20;;;9.60;99.90;;;;;;5091718;28;20274;-52
2023/03/18 00:36:02;;;;;;;109.90;63.37;;;9.50;99.90;;;;;;5091960;28;20260;-51
2023/03/18 00:38:31;;;;;;;258.73;85.57;;;9.50;99.90;;;;;;5091917;28;20227;-51
2023/03/18 00:41:09;;;;;;;414.57;141.00;;;9.60;99.90;;;;;;5091630;28;20243;-51
2023/03/18 00:43:44;;;;;;;337.97;138.73;;;9.60;99.90;;;;;;5091595;28;20782;-52
2023/03/18 00:46:15;;;;;;;358.73;86.50;;;9.50;99.90;;;;;;5091872;28;20214;-51
2023/03/18 00:48:43;;;;;;;376.80;75.07;;;9.50;99.90;;;;;;5091756;28;20201;-52
2023/03/18 00:51:15;;;;;;;382.27;77.13;;;9.40;99.90;;;;;;5091406;28;20758;-52
2023/03/18 00:53:46;;;;;;;235.30;77.43;;;9.40;99.90;;;;;;5091361;28;20216;-51
2023/03/18 00:56:15;;;;;;;156.53;66.50;;;9.40;99.90;;;;;;5091514;28;20227;-53
2023/03/18 00:58:44;;;;;;;308.07;66.10;;;9.40;99.90;;;;;;5091315;28;20220;-51
2023/03/18 01:01:12;;;;;;;207.47;66.50;;;9.40;99.90;;;;;;5091347;28;20223;-51
2023/03/18 01:03:42;;;;;;;1228.37;257.13;;;9.40;99.90;;;;;;5091324;28;20232;-52
2023/03/18 01:06:11;;;;;;;107.07;43.17;;;9.40;99.90;;;;;;5091496;28;20295;-52
2023/03/18 01:08:41;;;;;;;485.83;111.27;;;9.30;99.90;;;;;;5091248;28;20215;-51
2023/03/18 01:11:10;;;;;;;144.67;45.87;;;9.40;99.90;;;;;;5091266;28;20929;-52
2023/03/18 01:13:39;;;;;;;52.53;20.43;;;9.30;99.90;;;;;;5091098;28;20644;-51
2023/03/18 01:16:08;;;;;;;444.07;52.63;;;9.40;99.90;;;;;;5090819;28;20231;-51
2023/03/18 01:18:37;;;;;;;358.07;82.87;;;9.50;99.90;;;;;;5090879;28;20237;-52
2023/03/18 01:21:05;;;;;;;540.67;63.27;;;9.40;99.90;;;;;;5091149;28;20303;-52
2023/03/18 01:23:34;;;;;;;1262.93;164.73;;;9.40;99.90;;;;;;5090878;28;20222;-51
2023/03/18 01:26:03;;;;;;;182.53;49.53;;;9.40;99.90;;;;;;5091209;28;20297;-52
2023/03/18 01:28:32;;;;;;;234.80;62.33;;;9.40;99.90;;;;;;5090363;28;20688;-51
2023/03/18 01:31:00;;;;;;;1999.90;390.50;;;9.40;99.90;;;;;;5090849;28;20331;-51
2023/03/18 01:33:29;;;;;;;485.10;80.97;;;9.40;99.90;;;;;;5090796;28;20315;-52
2023/03/18 01:35:58;;;;;;;623.80;127.57;;;9.40;99.90;;;;;;5090889;28;20196;-55
2023/03/18 01:38:29;;;;;;;846.80;107.63;;;9.40;99.90;;;;;;5090950;28;20587;-52
2023/03/18 01:40:57;;;;;;;1502.87;202.20;;;9.40;99.90;;;;;;5090100;28;20197;-51
2023/03/18 01:43:29;;;;;;;82.60;26.73;;;9.40;99.90;;;;;;5090619;28;20268;-52
2023/03/18 01:46:00;;;;;;;743.53;127.13;;;9.40;99.90;;;;;;5090564;28;20334;-52
2023/03/18 01:48:30;;;;;;;1204.70;194.70;;;9.40;99.90;;;;;;5090733;28;20210;-51
2023/03/18 01:51:03;;;;;;;232.50;54.00;;;9.40;99.90;;;;;;5090950;28;20196;-52
2023/03/18 01:53:35;;;;;;;94.47;34.63;;;9.40;99.90;;;;;;5090291;28;20259;-50
2023/03/18 01:56:04;;;;;;;112.87;36.70;;;9.40;99.90;;;;;;5090087;28;20291;-51
2023/03/18 01:58:36;;;;;;;473.07;115.63;;;9.40;99.90;;;;;;5090339;28;20303;-51
2023/03/18 02:01:10;;;;;;;38.47;14.00;;;9.40;99.90;;;;;;5090607;28;20279;-51
2023/03/18 02:03:41;;;;;;;250.10;51.57;;;9.40;99.90;;;;;;5090119;28;20396;-52
2023/03/18 02:06:11;;;;;;;993.93;97.53;;;9.40;99.90;;;;;;5090367;28;20195;-51
2023/03/18 02:08:40;;;;;;;560.73;108.07;;;9.50;99.90;;;;;;5090161;28;20600;-51
2023/03/18 02:11:10;;;;;;;426.20;58.27;;;9.50;99.90;;;;;;5090291;28;20303;-51
2023/03/18 02:13:42;;;;;;;265.70;45.17;;;9.40;99.90;;;;;;5089875;28;20717;-51
2023/03/18 02:16:14;;;;;;;311.03;60.47;;;9.40;99.90;;;;;;5089911;28;20728;-52
2023/03/18 02:18:46;;;;;;;530.60;121.27;;;9.40;99.90;;;;;;5090009;28;20215;-51
2023/03/18 02:21:28;;;;;;;198.60;41.80;;;9.40;99.90;;;;;;5089606;28;20203;-52
2023/03/18 02:24:10;;;;;;;45.70;17.77;;;9.40;99.90;;;;;;5090027;28;20365;-51
2023/03/18 02:26:45;;;;;;;325.00;48.40;;;9.40;99.90;;;;;;5089788;28;20303;-52
2023/03/18 02:29:17;;;;;;;837.57;379.57;;;9.40;99.90;;;;;;5089360;28;20668;-52
2023/03/18 02:31:45;;;;;;;328.37;46.53;;;9.30;99.90;;;;;;5090046;28;20296;-51
2023/03/18 02:34:14;;;;;;;118.33;30.60;;;9.30;99.90;;;;;;5089355;28;20251;-51
2023/03/18 02:36:42;;;;;;;407.63;63.93;;;9.30;99.90;;;;;;5089575;28;20204;-51
2023/03/18 02:39:13;;;;;;;171.40;25.77;;;9.30;99.90;;;;;;5089364;28;21023;-52
2023/03/18 02:41:42;;;;;;;443.37;71.00;;;9.30;99.90;;;;;;5089702;28;20598;-51
2023/03/18 02:44:11;;;;;;;879.83;139.33;;;9.20;99.90;;;;;;5089417;28;20238;-51
2023/03/18 02:46:52;;;;;;;997.70;136.03;;;9.30;99.90;;;;;;5089283;28;20780;-51
2023/03/18 02:49:22;;;;;;;1348.80;197.80;;;9.30;99.90;;;;;;5089566;28;20212;-52
2023/03/18 02:51:50;;;;;;;713.43;128.70;;;9.20;99.90;;;;;;5089094;28;20214;-51
2023/03/18 02:54:20;;;;;;;34.13;16.73;;;9.20;99.90;;;;;;5089075;28;20283;-52
2023/03/18 02:56:48;;;;;;;269.13;66.80;;;9.20;99.90;;;;;;5089275;28;20256;-51
2023/03/18 02:59:17;;;;;;;514.93;86.03;;;9.30;99.90;;;;;;5088123;28;20334;-52
2023/03/18 03:01:48;;;;;;;111.23;27.93;;;9.20;99.90;;;;;;5089063;28;20215;-52
2023/03/18 03:04:17;;;;;;;116.00;28.97;;;9.20;99.90;;;;;;5088698;28;20245;-51
2023/03/18 03:06:45;;;;;;;285.23;47.40;;;9.30;99.90;;;;;;5088710;28;20208;-52
2023/03/18 03:09:16;;;;;;;1233.70;208.50;;;9.30;99.90;;;;;;5089087;28;20238;-51
2023/03/18 03:11:46;;;;;;;226.97;45.50;;;9.30;99.90;;;;;;5090791;28;20235;-52
2023/03/18 03:14:16;;;;;;;126.57;30.93;;;9.20;99.90;;;;;;5105417;28;20258;-51
2023/03/18 03:16:44;;;;;;;226.30;39.73;;;9.30;99.90;;;;;;5094365;28;20713;-52
2023/03/18 03:19:13;;;;;;;1208.83;160.37;;;9.20;99.90;;;;;;5089355;28;20692;-51
2023/03/18 03:21:41;;;;;;;1193.73;160.00;;;9.20;99.90;;;;;;5109030;28;20214;-52
2023/03/18 03:24:09;;;;;;;1444.90;168.60;;;9.20;99.90;;;;;;5109118;28;20235;-51
2023/03/18 03:26:38;;;;;;;654.50;91.17;;;9.20;99.90;;;;;;5095097;28;20284;-52
2023/03/18 03:29:06;;;;;;;734.30;95.70;;;9.10;99.90;;;;;;5109001;28;20204;-52
2023/03/18 03:31:35;;;;;;;211.67;67.77;;;9.10;99.90;;;;;;5108567;28;20653;-52
2023/03/18 03:34:03;;;;;;;89.53;34.00;;;9.10;99.90;;;;;;5097894;28;20716;-51
2023/03/18 03:36:33;;;;;;;1541.27;138.93;;;9.20;99.90;;;;;;5087803;28;20239;-51
2023/03/18 03:39:01;;;;;;;893.67;149.87;;;9.20;99.90;;;;;;5088881;28;20640;-52
2023/03/18 03:41:29;;;;;;;977.13;140.37;;;9.20;99.90;;;;;;5093848;28;20238;-52
2023/03/18 03:43:57;;;;;;;230.67;40.00;;;9.20;99.90;;;;;;5109064;28;20249;-51
2023/03/18 03:46:25;;;;;;;1340.07;146.67;;;9.20;99.90;;;;;;5109059;28;20245;-52
2023/03/18 03:48:53;;;;;;;88.67;37.33;;;9.20;99.90;;;;;;5105215;28;20204;-51
2023/03/18 03:51:21;;;;;;;721.50;93.43;;;9.20;99.90;;;;;;5101776;28;20575;-52
2023/03/18 03:53:51;;;;;;;364.03;66.13;;;9.30;99.90;;;;;;5108941;28;20257;-51
2023/03/18 03:56:18;;;;;;;407.47;54.13;;;9.30;99.90;;;;;;5108962;28;20235;-52
2023/03/18 03:58:46;;;;;;;52.67;24.70;;;9.30;99.90;;;;;;5091423;28;20287;-52
2023/03/18 04:01:14;;;;;;;540.77;120.20;;;9.30;99.90;;;;;;5096164;28;20232;-52
2023/03/18 04:03:43;;;;;;;442.53;64.50;;;9.30;99.90;;;;;;5105344;28;22431;-52
2023/03/18 04:06:11;;;;;;;264.63;53.37;;;9.30;99.90;;;;;;5112807;28;20219;-52
2023/03/18 04:08:40;;;;;;;121.40;31.93;;;9.30;99.90;;;;;;5097520;28;20258;-51
2023/03/18 04:11:09;;;;;;;370.87;57.60;;;9.30;99.90;;;;;;5098787;28;20199;-52
2023/03/18 04:13:37;;;;;;;304.90;51.90;;;9.40;99.90;;;;;;5112604;28;20641;-52
2023/03/18 04:16:06;;;;;;;172.43;34.47;;;9.30;99.90;;;;;;5112265;28;20290;-51
2023/03/18 04:18:34;;;;;;;39.53;20.87;;;9.40;99.90;;;;;;5104411;28;20209;-51
2023/03/18 04:21:02;;;;;;;500.90;80.83;;;9.40;99.90;;;;;;5110625;28;20251;-52
2023/03/18 04:23:31;;;;;;;43.17;25.90;;;9.50;99.90;;;;;;5112111;28;20223;-52
2023/03/18 04:26:00;;;;;;;352.07;57.13;;;9.50;99.90;;;;;;5111219;28;20237;-52
2023/03/18 04:28:29;;;;;;;124.20;34.17;;;9.50;99.90;;;;;;5101834;28;20203;-52
2023/03/18 04:30:57;;;;;;;364.27;68.83;;;9.50;99.90;;;;;;5107212;28;20295;-52
2023/03/18 04:33:26;;;;;;;379.93;69.17;;;9.50;99.90;;;;;;5112174;28;20327;-52
2023/03/18 04:35:54;;;;;;;44.77;27.43;;;9.60;99.90;;;;;;5112133;28;20294;-52
2023/03/18 04:38:22;;;;;;;239.43;48.60;;;9.50;99.90;;;;;;5112143;28;20210;-52
2023/03/18 04:40:51;;;;;;;641.57;100.27;;;9.50;99.90;;;;;;5112186;28;20257;-52
2023/03/18 04:43:19;;;;;;;22.33;17.93;;;9.50;99.90;;;;;;5112104;28;20308;-51
2023/03/18 04:45:49;;;;;;;58.93;28.60;;;9.50;99.90;;;;;;5112076;28;20617;-51
2023/03/18 04:48:17;;;;;;;152.80;49.90;;;9.50;99.90;;;;;;5112067;28;20223;-51
2023/03/18 04:50:45;;;;;;;80.87;36.53;;;9.60;99.90;;;;;;5111594;28;20203;-51
2023/03/18 04:53:13;;;;;;;278.83;60.63;;;9.60;99.90;;;;;;5110398;28;20226;-51
2023/03/18 04:55:42;;;;;;;188.17;40.00;;;9.60;99.90;;;;;;5107369;28;20349;-51
2023/03/18 04:58:11;;;;;;;184.70;37.70;;;9.60;99.90;;;;;;5107840;28;20294;-52
2023/03/18 05:00:39;;;;;;;74.10;28.23;;;9.60;99.90;;;;;;5109073;28;20665;-51
2023/03/18 05:03:09;;;;;;;578.73;85.90;;;9.60;99.90;;;;;;5111250;28;20221;-52
2023/03/18 05:05:37;;;;;;;1175.03;409.13;;;9.60;99.90;;;;;;5111191;28;20235;-52
2023/03/18 05:08:06;;;;;;;219.17;47.50;;;9.60;99.90;;;;;;5101451;28;20207;-51
2023/03/18 05:10:35;;;;;;;164.20;40.80;;;9.60;99.90;;;;;;5093408;28;20205;-51
2023/03/18 05:13:03;;;;;;;313.33;52.20;;;9.60;99.90;;;;;;5109992;28;20302;-51
2023/03/18 05:15:31;;;;;;;43.20;25.20;;;9.60;99.90;;;;;;5110988;28;20294;-52
2023/03/18 05:18:00;;;;;;;114.07;31.37;;;9.60;99.90;;;;;;5111194;28;20931;-52
2023/03/18 05:20:29;;;;;;;322.50;47.40;;;9.60;99.90;;;;;;5108578;28;20243;-52
2023/03/18 05:22:57;;;;;;;199.57;43.77;;;9.60;99.90;;;;;;5083177;28;20682;-51
2023/03/18 05:25:25;;;;;;;1079.97;186.60;;;9.60;99.90;;;;;;5111358;28;20232;-51
2023/03/18 05:27:54;;;;;;;52.50;23.70;;;9.50;99.90;;;;;;5111068;28;20235;-51
2023/03/18 05:30:22;;;;;;;206.53;46.73;;;9.40;99.90;;;;;;5111061;28;20294;-52
2023/03/18 05:32:50;;;;;;;267.67;57.23;;;9.40;99.90;;;;;;5111071;28;20303;-51
2023/03/18 05:35:18;;;;;;;1116.17;184.50;;;9.40;99.90;;;;;;5110045;28;20203;-52
2023/03/18 05:37:47;;;;;;;476.30;81.83;;;9.40;99.90;;;;;;5105409;28;20624;-51
2023/03/18 05:40:15;;;;;;;478.87;78.53;;;9.40;99.90;;;;;;5111104;28;20298;-52
2023/03/18 05:42:44;;;;;;;301.37;51.27;;;9.30;99.90;;;;;;5110515;28;20318;-51
2023/03/18 05:45:23;;;;;;;508.20;79.40;;;9.30;99.90;;;;;;5110953;28;20203;-52
2023/03/18 05:47:51;;;;;;;288.70;60.83;;;9.30;99.90;;;;;;5110704;28;20676;-52
2023/03/18 05:50:28;;;;;;;294.87;70.53;;;9.30;99.90;;;;;;5102930;28;20711;-52
2023/03/18 05:52:58;;;;;;;692.47;112.90;;;9.30;99.90;;;;;;5105427;28;20203;-52
2023/03/18 05:55:27;;;;;;;142.63;81.70;;;9.30;99.90;;;;;;5110441;28;20207;-51
2023/03/18 05:57:55;;;;;;;157.67;54.93;;;9.30;99.90;;;;;;5110880;28;20211;-51
2023/03/18 06:00:24;;;;;;;178.83;60.13;;;9.30;99.90;;;;;;5082634;28;20257;-52
2023/03/18 06:02:52;;;;;;;498.30;105.97;;;9.30;99.90;;;;;;5102325;28;20315;-51
2023/03/18 06:05:21;;;;;;;41.93;30.43;;;9.20;99.90;;;;;;5109420;28;20211;-51
2023/03/18 06:07:49;;;;;;;423.93;67.90;;;9.30;99.90;;;;;;5102361;28;21010;-52
2023/03/18 06:10:19;;;;;;;453.27;93.43;;;9.20;99.90;;;;;;5090022;28;20295;-52
2023/03/18 06:12:48;;;;;;;139.90;52.33;;;9.30;99.90;;;;;;5089538;28;20235;-52
2023/03/18 06:15:16;;;;;;;138.83;42.73;;;9.30;99.90;;;;;;5096096;28;20206;-52
2023/03/18 06:17:44;;;;;;;41.77;31.47;;;9.30;99.90;;;;;;5109705;28;20207;-51
2023/03/18 06:20:13;;;;;;;567.07;126.37;;;9.40;99.90;;;;;;5110383;28;20559;-52
2023/03/18 06:22:42;;;;;;;81.93;35.67;;;9.40;99.90;;;;;;5107623;28;20751;-51
2023/03/18 06:25:11;;;;;;;42.97;27.27;;;9.40;99.90;;;;;;5090430;28;20251;-52
2023/03/18 06:27:40;;;;;;;416.50;87.13;;;9.40;99.90;;;;;;5105991;28;20673;-52
2023/03/18 06:30:10;;;;;;;45.37;27.60;;;9.40;99.90;;;;;;5110186;28;20204;-52
2023/03/18 06:32:39;;;;;;;62.40;31.47;;;9.50;99.90;;;;;;5109560;28;20242;-52
2023/03/18 06:35:09;;;;;;;358.87;59.93;;;9.50;99.90;;;;;;5109707;28;20308;-51
2023/03/18 06:37:37;;;;;;;186.33;50.33;;;9.60;99.90;;;;;;5105325;28;20703;-51
2023/03/18 06:40:08;;;;;;;273.70;55.70;;;9.60;99.90;;;;;;5110039;28;20231;-51
2023/03/18 06:42:36;;;;;;;1180.53;152.47;;;9.70;99.90;;;;;;5102906;28;20220;-52
2023/03/18 06:45:07;;;;;;;695.63;104.10;;;9.70;99.90;;;;;;5086845;28;21118;-52
2023/03/18 06:47:35;;;;;;;55.13;30.53;;;9.70;99.90;;;;;;5109401;28;20203;-51
2023/03/18 06:50:03;;;;;;;1147.60;198.77;;;9.70;99.90;;;;;;5096613;28;20302;-52
2023/03/18 06:52:31;;;;;;;1463.80;309.47;;;9.80;99.90;;;;;;5109480;28;20276;-52
2023/03/18 06:54:59;;;;;;;540.50;90.10;;;9.90;99.90;;;;;;5109770;28;20308;-52
2023/03/18 06:57:27;;;;;;;1420.63;459.83;;;9.90;99.90;;;;;;5098762;28;20204;-52
2023/03/18 06:59:56;;;;;;;1079.40;170.73;;;9.90;99.90;;;;;;5105788;28;20203;-52
2023/03/18 07:02:26;;;;;;;655.43;110.27;;;9.90;99.90;;;;;;5109648;28;20228;-51
2023/03/18 07:04:54;;;;;;;923.20;115.37;;;9.90;99.90;;;;;;5094540;28;20360;-52
2023/03/18 07:07:23;;;;;;;1489.50;216.47;;;9.90;99.90;;;;;;5092369;28;20204;-52
2023/03/18 07:09:51;;;;;;;355.10;62.33;;;10.00;99.90;;;;;;5089017;28;20208;-52
2023/03/18 07:12:19;;;;;;;788.07;106.57;;;10.00;99.90;;;;;;5105689;28;20237;-52
2023/03/18 07:14:47;;;;;;;1367.47;184.03;;;10.10;99.90;;;;;;5102525;28;20306;-52
2023/03/18 07:17:15;;;;;;;427.97;75.97;;;10.10;99.90;;;;;;5109188;28;20214;-52
2023/03/18 07:19:45;;;;;;;582.07;74.07;;;10.20;99.90;;;;;;5109416;28;20203;-52
2023/03/18 07:22:14;;;;;;;1279.30;195.07;;;10.20;99.90;;;;;;5108766;28;20255;-52
2023/03/18 07:24:42;;;;;;;816.83;114.83;;;10.30;99.90;;;;;;5109094;28;20767;-52
2023/03/18 07:27:12;;;;;;;1747.67;214.50;;;10.50;99.90;;;;;;5109032;28;20290;-52
2023/03/18 07:29:40;;;;;;;1999.90;330.77;;;10.80;99.90;;;;;;5108270;28;20749;-52
2023/03/18 07:32:08;;;;;;;1999.90;458.60;;;10.90;99.90;;;;;;5100986;28;20203;-52
2023/03/18 07:34:36;;;;;;;1999.90;480.17;;;11.00;99.90;;;;;;5109156;28;20306;-51
2023/03/18 07:37:06;;;;;;;1999.90;323.03;;;11.20;99.90;;;;;;5109224;28;20298;-52
2023/03/18 07:39:34;;;;;;;1999.90;316.97;;;11.20;99.90;;;;;;5099955;28;20290;-52
2023/03/18 07:42:02;;;;;;;1999.90;324.73;;;11.30;99.90;;;;;;5108334;28;20308;-52
2023/03/18 07:44:30;;;;;;;1999.90;312.00;;;11.40;99.90;;;;;;5092838;28;20231;-52
2023/03/18 07:46:58;;;;;;;1999.90;476.23;;;11.60;99.90;;;;;;5099004;28;20201;-52
2023/03/18 07:49:26;;;;;;;1999.90;346.10;;;12.20;99.90;;;;;;5096106;28;20558;-52
2023/03/18 07:51:54;;;;;;;1999.90;532.37;;;12.30;99.90;;;;;;5092137;28;20295;-52
2023/03/18 07:54:24;;;;;;;1999.90;568.60;;;12.50;99.90;;;;;;5092003;28;20311;-52
2023/03/18 07:56:52;;;;;;;1999.90;684.27;;;12.50;99.90;;;;;;5091988;28;20737;-52
2023/03/18 07:59:20;;;;;;;1999.90;510.43;;;12.50;99.90;;;;;;5093323;28;20298;-52
2023/03/18 08:01:49;;;;;;;1999.90;563.90;;;12.80;99.90;;;;;;5089614;28;20204;-52
2023/03/18 08:04:18;;;;;;;1999.90;691.53;;;13.00;99.90;;;;;;5089308;28;20224;-52
2023/03/18 08:06:46;;;;;;;1999.90;504.03;;;13.00;99.90;;;;;;5083248;28;20204;-52
2023/03/18 08:09:14;;;;;;;1999.90;522.17;;;13.10;99.90;;;;;;5087413;28;20200;-52
2023/03/18 08:11:44;;;;;;;1999.90;570.17;;;13.10;99.90;;;;;;5088646;28;20939;-52
2023/03/18 08:14:12;;;;;;;1999.90;553.17;;;13.10;99.90;;;;;;5093399;28;20763;-51
2023/03/18 08:16:40;;;;;;;1999.90;678.90;;;13.20;99.90;;;;;;5088655;28;20205;-51
2023/03/18 08:19:08;;;;;;;1999.90;474.47;;;13.20;99.90;;;;;;5088188;28;20214;-52
2023/03/18 08:21:36;;;;;;;1999.90;548.10;;;13.20;99.90;;;;;;5094870;28;20203;-51
2023/03/18 08:24:05;;;;;;;1999.90;430.85;;;13.30;99.90;;;;;;5092016;28;20262;-52
2023/03/18 08:26:33;;;;;;;1999.90;741.03;;;13.50;99.90;;;;;;5090296;28;20300;-52
2023/03/18 08:29:02;;;;;;;1999.90;401.33;;;13.40;99.90;;;;;;5090669;28;20299;-52
2023/03/18 08:31:30;;;;;;;1999.90;570.03;;;13.30;99.90;;;;;;5091094;28;20661;-52
2023/03/18 08:33:59;;;;;;;1999.90;529.47;;;13.20;99.90;;;;;;5091166;28;20224;-52
2023/03/18 08:36:27;;;;;;;1999.90;395.37;;;13.20;99.90;;;;;;5090519;28;20295;-52
2023/03/18 08:38:55;;;;;;;1999.90;536.20;;;13.10;99.90;;;;;;5091137;28;20208;-52
2023/03/18 08:41:24;;;;;;;1999.90;482.27;;;13.20;99.90;;;;;;5091438;28;20230;-52
2023/03/18 08:43:54;;;;;;;1999.90;513.73;;;13.10;99.90;;;;;;5091535;28;20228;-52
2023/03/18 08:46:23;;;;;;;1999.90;498.57;;;13.10;99.90;;;;;;5091171;28;20208;-52
2023/03/18 08:48:53;;;;;;;1999.90;577.97;;;13.10;99.90;;;;;;5091519;28;20204;-52
2023/03/18 08:51:22;;;;;;;1999.90;452.27;;;13.10;99.90;;;;;;5090294;28;20215;-52
2023/03/18 08:53:50;;;;;;;1999.90;608.57;;;13.20;99.90;;;;;;5091152;28;20247;-52
2023/03/18 08:56:18;;;;;;;1999.90;474.70;;;13.40;99.90;;;;;;5091176;28;20251;-52
2023/03/18 08:58:47;;;;;;;1999.90;656.83;;;13.40;99.90;;;;;;5090756;28;20230;-51
2023/03/18 09:01:15;;;;;;;1999.90;693.30;;;13.40;99.90;;;;;;5091407;28;20232;-52
2023/03/18 09:03:45;;;;;;;1999.90;417.50;;;13.40;99.90;;;;;;5090434;28;20231;-51
2023/03/18 09:06:14;;;;;;;1999.90;653.87;;;13.60;99.90;;;;;;5083426;28;20323;-52
2023/03/18 09:08:42;;;;;;;1999.90;712.00;;;13.60;99.90;;;;;;5091129;28;20303;-52
2023/03/18 09:11:12;;;;;;;1999.90;783.13;;;13.60;99.90;;;;;;5090852;28;20235;-51
2023/03/18 09:13:40;;;;;;;1999.90;595.57;;;13.70;99.90;;;;;;5091016;28;20307;-52
2023/03/18 09:16:09;;;;;;;1999.90;537.20;;;13.60;99.90;;;;;;5094903;28;20290;-51
2023/03/18 09:18:38;;;;;;;1999.90;587.13;;;13.70;99.90;;;;;;5107391;28;20203;-52
2023/03/18 09:21:07;;;;;;;1999.90;612.27;;;13.70;99.90;;;;;;5110291;28;20212;-52
2023/03/18 09:23:35;;;;;;;1999.90;601.40;;;13.80;99.90;;;;;;5110966;28;20288;-52
2023/03/18 09:26:04;;;;;;;1999.90;448.73;;;13.80;99.90;;;;;;5110853;28;20211;-52
2023/03/18 09:28:32;;;;;;;1999.90;281.37;;;13.90;99.90;;;;;;5104334;28;20203;-51
2023/03/18 09:31:00;;;;;;;1999.90;586.17;;;14.00;99.90;;;;;;5111135;28;20231;-52
2023/03/18 09:33:28;;;;;;;1999.90;436.07;;;14.20;99.90;;;;;;5110849;28;20228;-52
2023/03/18 09:35:56;;;;;;;1999.90;424.02;;;14.20;99.90;;;;;;5110789;28;20287;-51
2023/03/18 09:38:26;;;;;;;1999.90;576.77;;;14.30;99.90;;;;;;5110476;28;20706;-51
2023/03/18 09:41:07;;;;;;;1999.90;569.38;;;14.30;99.90;;;;;;5109710;28;20212;-51
2023/03/18 09:43:52;;;;;;;1999.90;525.85;;;14.20;99.90;;;;;;5081758;28;20253;-51
2023/03/18 09:46:32;;;;;;;1999.90;614.08;;;14.30;99.90;;;;;;5107504;28;20306;-51
2023/03/18 09:49:11;;;;;;;1999.90;551.95;;;14.30;99.90;;;;;;5109171;28;20199;-52
2023/03/18 09:51:48;;;;;;;1999.90;660.33;;;14.30;99.90;;;;;;5110223;28;20299;-52
2023/03/18 09:54:23;;;;;;;1999.90;614.72;;;14.40;99.90;;;;;;5110830;28;20243;-52
2023/03/18 09:56:53;;;;;;;1999.90;651.80;;;14.30;99.90;;;;;;5110371;28;20289;-52
2023/03/18 09:59:24;;;;;;;1999.90;727.20;;;14.30;99.90;;;;;;5110164;28;20724;-52
2023/03/18 10:01:55;;;;;;;1999.90;654.90;;;14.30;99.90;;;;;;5097416;28;20234;-52
2023/03/18 10:04:26;;;;;;;1999.90;750.25;;;14.20;99.90;;;;;;5110386;28;20350;-52
2023/03/18 10:06:59;;;;;;;1999.90;732.10;;;14.20;99.90;;;;;;5100460;28;20203;-52
2023/03/18 10:09:31;;;;;;;1999.90;710.92;;;14.40;99.90;;;;;;5089694;28;20277;-52
2023/03/18 10:12:07;;;;;;;1999.90;671.70;;;14.30;99.90;;;;;;5089626;28;20307;-52
2023/03/18 10:14:41;;;;;;;1999.90;632.85;;;14.30;99.90;;;;;;5096928;28;20302;-52
2023/03/18 10:17:17;;;;;;;1999.90;374.05;;;14.40;99.90;;;;;;5105346;28;20283;-52
2023/03/18 10:19:50;;;;;;;1999.90;591.63;;;14.50;99.90;;;;;;5109891;28;20239;-52
2023/03/18 10:23:00;;;;;;;1999.90;756.75;;;14.60;99.90;;;;;;5097413;28;20212;-51
2023/03/18 10:25:36;;;;;;;1999.90;559.83;;;14.70;99.90;;;;;;5080749;28;20673;-51
2023/03/18 10:28:36;;;;;;;1999.90;787.30;;;14.70;99.90;;;;;;5081968;28;20294;-52
2023/03/18 10:31:19;;;;;;;1999.90;389.85;;;14.70;99.90;;;;;;5110084;28;20209;-52
2023/03/18 10:33:56;;;;;;;1999.90;717.55;;;14.70;99.90;;;;;;5109887;28;20223;-52
2023/03/18 10:36:30;;;;;;;1999.90;813.92;;;14.60;99.90;;;;;;5109753;28;20286;-51
2023/03/18 10:39:00;;;;;;;1999.90;560.65;;;14.60;99.90;;;;;;5106091;28;20210;-52
2023/03/18 10:41:33;;;;;;;1999.90;631.63;;;14.90;99.90;;;;;;5109766;28;20280;-51
2023/03/18 10:44:04;;;;;;;1999.90;720.05;;;15.10;99.90;;;;;;5106727;28;20235;-51
2023/03/18 10:46:34;;;;;;;1999.90;700.38;;;15.30;99.90;;;;;;5088958;28;20295;-52
2023/03/18 10:49:09;;;;;;;1999.90;569.95;;;15.40;99.90;;;;;;5088874;28;20242;-52
2023/03/18 10:51:44;;;;;;;1999.90;593.65;;;15.60;99.90;;;;;;5088423;28;20605;-52
2023/03/18 10:54:17;;;;;;;1999.90;893.63;;;15.60;99.90;;;;;;5085409;28;20306;-52
2023/03/18 10:56:47;;;;;;;1999.90;823.47;;;15.70;99.90;;;;;;5095099;28;20238;-52
2023/03/18 10:59:17;;;;;;;1999.90;701.38;;;15.70;99.90;;;;;;5102064;28;20279;-52
2023/03/18 11:01:48;;;;;;;1999.90;878.53;;;15.80;99.90;;;;;;5099018;28;20211;-52
2023/03/18 11:04:20;;;;;;;1999.90;910.85;;;15.80;99.90;;;;;;5091163;28;20228;-51
2023/03/18 11:06:51;;;;;;;1999.90;926.28;;;15.80;99.90;;;;;;5099540;28;20569;-52
2023/03/18 11:09:22;;;;;;;1999.90;709.85;;;15.90;99.90;;;;;;5094544;28;20264;-52
2023/03/18 11:11:57;;;;;;;1999.90;850.40;;;16.00;99.90;;;;;;5101582;28;20281;-52
2023/03/18 11:14:29;;;;;;;1999.90;986.72;;;16.00;99.90;;;;;;5088637;28;20254;-52
2023/03/18 11:16:59;;;;;;;1999.90;805.55;;;16.00;99.90;;;;;;5088351;28;20204;-52
2023/03/18 11:19:31;;;;;;;1999.90;987.30;;;15.90;99.90;;;;;;5088595;28;20232;-52
2023/03/18 11:22:19;;;;;;;1999.90;919.20;;;15.80;99.90;;;;;;5088916;28;20240;-52
2023/03/18 11:25:00;;;;;;;1999.90;733.72;;;15.80;99.90;;;;;;5087885;28;20311;-51
2023/03/18 11:27:37;;;;;;;1999.90;847.20;;;15.80;99.90;;;;;;5101050;28;20245;-52
2023/03/18 11:30:14;;;;;;;1999.90;946.03;;;15.80;99.90;;;;;;5109314;28;20264;-51
2023/03/18 11:33:02;;;;;;;1999.90;976.30;;;15.80;99.90;;;;;;5099405;28;20208;-52
2023/03/18 11:35:36;;;;;;;1999.90;872.90;;;15.70;99.90;;;;;;5109332;28;20206;-52
2023/03/18 11:38:06;;;;;;;1999.90;712.67;;;15.80;99.90;;;;;;5106407;28;20622;-51
2023/03/18 11:40:34;;;;;;;1999.90;749.08;;;15.90;99.90;;;;;;5109364;28;20257;-52
2023/03/18 11:43:16;;;;;;;1999.90;865.47;;;16.10;99.90;;;;;;5094518;28;20251;-52
2023/03/18 11:45:49;;;;;;;1999.90;870.47;;;16.20;99.90;;;;;;5088514;28;20260;-52
2023/03/18 11:48:23;;;;;;;1999.90;917.80;;;16.20;99.90;;;;;;5082819;28;20235;-52
2023/03/18 11:51:05;;;;;;;1999.90;786.00;;;16.10;99.90;;;;;;5088603;28;20728;-51
2023/03/18 11:53:45;;;;;;;1999.90;877.80;;;16.00;99.90;;;;;;5075178;28;20227;-52
2023/03/18 11:56:19;;;;;;;1999.90;890.28;;;16.00;99.90;;;;;;5083459;28;22073;-52
2023/03/18 11:59:30;;;;;;;1999.90;841.42;;;16.10;99.90;;;;;;5085684;28;20239;-51
2023/03/18 12:02:12;;;;;;;1999.90;936.55;;;16.30;99.90;;;;;;4991967;28;20208;-52
2023/03/18 12:04:55;;;;;;;1999.90;870.15;;;16.20;99.90;;;;;;5004558;28;20269;-52
2023/03/18 12:07:43;;;;;;;1999.90;999.90;;;16.30;99.90;;;;;;5058435;28;20270;-52
2023/03/18 12:10:22;;;;;;;1999.90;901.53;;;16.30;99.90;;;;;;5087618;28;20205;-52
2023/03/18 12:13:18;;;;;;;1999.90;879.10;;;16.30;99.90;;;;;;5096481;28;20243;-52
2023/03/18 12:15:54;;;;;;;1999.90;999.90;;;16.60;99.90;;;;;;5088042;28;20200;-51
2023/03/18 12:18:39;;;;;;;1999.90;999.90;;;16.80;99.90;;;;;;5095495;28;20230;-52
2023/03/18 12:21:36;;;;;;;1999.90;999.90;;;16.70;99.90;;;;;;5088146;28;20223;-52
2023/03/18 12:24:17;;;;;;;1999.90;987.40;;;16.70;99.90;;;;;;5087841;28;20657;-52
2023/03/18 12:26:53;;;;;;;1999.90;999.90;;;16.80;99.90;;;;;;5082554;28;20232;-52
2023/03/18 12:30:03;;;;;;;1999.90;970.05;;;16.70;99.90;;;;;;5091782;28;20207;-52
2023/03/18 12:32:37;;;;;;;1999.90;999.90;;;16.60;99.90;;;;;;5089273;28;20330;-52